Terminal Aerodrome Forecast
Issued by NWS

Home | Current Version | Previous Version | Text Only | Print | Product List | Glossary On
Versions: 1 2 3 4 5 6 7 8 9 10 11 12 13 14 15 16 17 18
000
FTUS45 KABQ 030500
TAFROW
TAF
KROW 030535Z 0306/0406 17011KT P6SM SCT130 BKN200
     FM031300 07009KT P6SM BKN150
     FM031600 36008KT P6SM BKN060
     FM032300 20007KT P6SM FEW060 FEW120=

USA.gov is the U.S. government's official web portal to all federal, state and local government web resources and services.